Time;durP1;ratioP1;P1;durP2;ratioP2;P2;SDS_P1;SDS_P2;PMS_P1;PMS_P2;Temp;Humidity;BMP_temperature;BMP_pressure;BME280_temperature;BME280_humidity;BME280_pressure;Samples;Min_cycle;Max_cycle;Signal;HPM_P1;HPM_P2
2022/01/03 00:01:12;;;;;;;166.52;30.48;;;;;;;7.84;100.00;100354.56;5042319;28;20041;-75
2022/01/03 00:03:37;;;;;;;171.43;31.42;;;;;;;7.75;100.00;100340.34;5041645;28;20029;-75
2022/01/03 00:06:04;;;;;;;115.28;29.58;;;;;;;8.04;100.00;100351.06;5041023;28;20096;-75
2022/01/03 00:08:29;;;;;;;139.63;29.00;;;;;;;8.26;100.00;100344.78;5042480;28;20060;-70
2022/01/03 00:10:57;;;;;;;115.22;29.65;;;;;;;8.52;100.00;100351.31;5041790;28;20326;-70
2022/01/03 00:13:23;;;;;;;98.10;28.05;;;;;;;8.70;100.00;100350.69;5041947;28;20172;-70
2022/01/03 00:15:50;;;;;;;106.55;27.15;;;;;;;8.85;100.00;100334.31;5042274;28;20045;-74
2022/01/03 00:18:16;;;;;;;176.57;27.85;;;;;;;9.10;100.00;100335.59;5040324;28;20307;-71
2022/01/03 00:20:51;;;;;;;190.90;29.08;;;;;;;9.12;98.82;100325.72;5044594;28;20128;-70
2022/01/03 00:23:20;;;;;;;124.18;27.10;;;;;;;9.04;98.42;100309.72;5045928;28;20025;-75
2022/01/03 00:25:51;;;;;;;138.48;25.95;;;;;;;8.53;100.00;100302.00;5045751;28;20041;-75
2022/01/03 00:28:25;;;;;;;184.32;29.10;;;;;;;8.15;100.00;100284.19;5045906;28;20028;-75
2022/01/03 00:30:55;;;;;;;159.55;25.23;;;;;;;8.28;100.00;100290.91;5045043;28;20083;-75
2022/01/03 00:33:22;;;;;;;111.63;25.38;;;;;;;8.34;100.00;100288.75;5045835;28;20263;-75
2022/01/03 00:35:53;;;;;;;140.88;28.35;;;;;;;8.17;100.00;100276.97;5045809;28;20048;-71
2022/01/03 00:38:20;;;;;;;149.52;24.50;;;;;;;7.78;100.00;100276.81;5045537;28;20092;-76
2022/01/03 00:40:47;;;;;;;165.23;27.35;;;;;;;7.70;100.00;100279.28;5045446;28;20088;-70
2022/01/03 00:43:15;;;;;;;195.90;29.55;;;;;;;7.86;100.00;100261.19;5045546;28;20334;-75
2022/01/03 00:45:41;;;;;;;191.15;26.08;;;;;;;7.75;100.00;100278.88;5045454;28;20048;-76
2022/01/03 00:48:08;;;;;;;152.95;24.60;;;;;;;7.32;100.00;100256.16;5045314;28;20021;-71
2022/01/03 00:50:34;;;;;;;156.73;25.85;;;;;;;7.05;100.00;100278.53;5045333;28;20042;-71
2022/01/03 00:52:59;;;;;;;252.00;30.17;;;;;;;6.95;100.00;100266.25;5045019;28;20046;-70
2022/01/03 00:55:25;;;;;;;118.72;22.33;;;;;;;6.73;100.00;100254.84;5045436;28;20041;-75
2022/01/03 00:58:02;;;;;;;174.73;22.67;;;;;;;7.00;100.00;100274.63;5045061;28;20037;-70
2022/01/03 01:00:31;;;;;;;149.95;25.73;;;;;;;6.86;100.00;100267.00;5045471;28;20067;-71
2022/01/03 01:03:01;;;;;;;287.50;31.58;;;;;;;6.86;100.00;100253.84;5043932;28;20034;-75
2022/01/03 01:05:27;;;;;;;210.57;26.63;;;;;;;6.90;100.00;100252.63;5043773;28;20071;-70
2022/01/03 01:07:56;;;;;;;149.15;23.10;;;;;;;7.04;100.00;100279.50;5045131;28;20036;-71
2022/01/03 01:10:26;;;;;;;175.57;22.50;;;;;;;7.13;100.00;100277.91;5045645;28;20031;-71
2022/01/03 01:12:54;;;;;;;127.05;21.08;;;;;;;6.81;100.00;100271.81;5044786;28;20032;-69
2022/01/03 01:15:19;;;;;;;146.25;21.95;;;;;;;6.71;100.00;100266.47;5045003;28;20205;-69
2022/01/03 01:17:45;;;;;;;135.45;21.83;;;;;;;6.71;100.00;100258.56;5044720;28;20116;-71
2022/01/03 01:20:15;;;;;;;94.13;19.48;;;;;;;6.46;100.00;100257.09;5044706;28;20246;-75
2022/01/03 01:22:42;;;;;;;110.43;18.80;;;;;;;6.20;100.00;100251.25;5044650;28;20057;-75
2022/01/03 01:27:50;;;;;;;120.20;21.30;;;;;;;6.30;100.00;100241.69;5044552;28;20033;-75
2022/01/03 01:30:21;;;;;;;114.22;18.98;;;;;;;6.30;100.00;100236.44;5044868;28;20029;-75
2022/01/03 01:33:02;;;;;;;91.82;17.77;;;;;;;6.29;100.00;100226.03;5043892;28;20037;-70
2022/01/03 01:35:42;;;;;;;84.38;20.13;;;;;;;6.37;100.00;100221.00;5044629;28;20338;-75
2022/01/03 01:38:10;;;;;;;151.77;20.45;;;;;;;6.40;100.00;100218.97;5044571;28;20029;-74
2022/01/03 01:40:43;;;;;;;134.88;20.85;;;;;;;6.48;100.00;100202.56;5044574;28;20037;-71
2022/01/03 01:43:11;;;;;;;136.50;19.63;;;;;;;6.79;100.00;100213.19;5044353;28;20021;-75
2022/01/03 01:45:40;;;;;;;131.00;19.42;;;;;;;6.87;100.00;100200.25;5044538;28;20037;-69
2022/01/03 01:48:10;;;;;;;139.05;20.80;;;;;;;7.03;100.00;100211.16;5044253;28;20215;-75
2022/01/03 01:50:39;;;;;;;121.25;18.27;;;;;;;7.02;100.00;100210.31;5044480;28;20263;-75
2022/01/03 01:53:05;;;;;;;160.27;18.42;;;;;;;7.25;100.00;100192.59;5043990;28;20042;-71
2022/01/03 01:55:31;;;;;;;84.55;16.83;;;;;;;7.47;100.00;100206.59;5044238;28;20335;-75
2022/01/03 01:58:14;;;;;;;111.32;18.35;;;;;;;7.68;99.53;100192.41;5042685;28;20052;-70
2022/01/03 02:00:44;;;;;;;94.25;19.42;;;;;;;7.94;98.15;100198.06;5044602;28;20038;-70
2022/01/03 02:03:18;;;;;;;94.63;18.23;;;;;;;8.10;96.24;100191.44;5044008;28;20033;-71
2022/01/03 02:05:47;;;;;;;;;;;;;;;8.11;95.60;100183.41;5044944;28;20033;-75
2022/01/03 02:08:26;;;;;;;92.03;16.67;;;;;;;7.87;95.48;100167.94;5043881;28;20114;-69
2022/01/03 02:11:20;;;;;;;128.23;19.35;;;;;;;8.03;95.07;100172.69;5044095;28;20037;-75
2022/01/03 02:13:47;;;;;;;112.57;19.15;;;;;;;7.99;95.58;100164.22;5045361;28;20033;-75
2022/01/03 02:16:13;;;;;;;101.70;16.35;;;;;;;8.19;94.55;100165.09;5044073;28;20425;-75
2022/01/03 02:18:40;;;;;;;79.50;16.80;;;;;;;8.30;93.12;100154.41;5042428;28;20014;-71
2022/01/03 02:21:05;;;;;;;80.65;16.75;;;;;;;8.45;92.02;100154.06;5043804;28;20029;-76
2022/01/03 02:23:31;;;;;;;129.90;18.17;;;;;;;8.49;90.94;100160.72;5043694;28;20021;-69
2022/01/03 02:25:56;;;;;;;67.47;18.05;;;;;;;8.36;91.33;100157.53;5044130;28;20063;-75
2022/01/03 02:28:22;;;;;;;95.60;18.92;;;;;;;8.11;91.72;100149.09;5043755;28;20033;-75
2022/01/03 02:30:50;;;;;;;144.05;17.65;;;;;;;7.91;92.26;100132.41;5043868;28;20126;-75
2022/01/03 02:33:16;;;;;;;91.70;17.52;;;;;;;7.95;92.36;100128.53;5043416;28;20018;-71
2022/01/03 02:35:43;;;;;;;125.22;18.73;;;;;;;7.91;91.74;100135.06;5043602;28;20029;-77
2022/01/03 02:38:10;;;;;;;160.25;17.65;;;;;;;7.32;94.24;100135.00;5043405;28;20045;-75
2022/01/03 02:40:36;;;;;;;168.10;17.42;;;;;;;7.46;94.74;100141.69;5043508;28;20064;-70
2022/01/03 02:43:02;;;;;;;175.80;19.67;;;;;;;7.41;94.82;100147.38;5042529;28;20025;-75
2022/01/03 02:45:28;;;;;;;115.28;18.90;;;;;;;7.69;93.63;100137.91;5043173;28;20072;-75
2022/01/03 02:48:02;;;;;;;122.82;16.33;;;;;;;7.27;95.23;100126.63;5042977;28;20056;-70
2022/01/03 02:50:29;;;;;;;;;;;;;;;7.50;94.55;100141.31;5043953;28;20033;-70
2022/01/03 02:52:55;;;;;;;81.50;15.70;;;;;;;7.46;94.91;100131.16;5043020;28;19917;-75
2022/01/03 02:55:22;;;;;;;156.70;17.67;;;;;;;7.66;94.21;100144.28;5038995;28;20827;-71
2022/01/03 02:57:51;;;;;;;150.68;16.58;;;;;;;7.64;94.81;100133.03;5037538;28;20029;-75
2022/01/03 03:00:22;;;;;;;121.07;16.70;;;;;;;7.85;92.50;100140.03;5036568;28;20037;-75
2022/01/03 03:02:48;;;;;;;63.88;15.20;;;;;;;7.77;91.50;100158.31;5036088;28;20078;-70
2022/01/03 03:05:15;;;;;;;82.97;15.52;;;;;;;7.82;92.81;100145.56;5036467;28;20034;-75
2022/01/03 03:07:43;;;;;;;86.13;16.83;;;;;;;7.82;93.05;100145.56;5036802;28;20315;-70
2022/01/03 03:10:13;;;;;;;76.88;15.68;;;;;;;7.51;94.49;100137.72;5036403;28;20060;-70
2022/01/03 03:12:39;;;;;;;55.70;14.93;;;;;;;7.80;94.12;100137.78;5036712;28;20280;-75
2022/01/03 03:15:06;;;;;;;73.57;14.25;;;;;;;7.61;93.33;100125.41;5035854;28;20028;-75
2022/01/03 03:17:32;;;;;;;71.03;16.02;;;;;;;7.80;92.29;100134.31;5033412;28;20252;-76
2022/01/03 03:19:59;;;;;;;70.50;15.07;;;;;;;7.81;92.50;100126.28;5038506;28;20031;-75
2022/01/03 03:22:27;;;;;;;98.30;15.50;;;;;;;7.78;91.58;100131.81;5031968;28;20975;-75
2022/01/03 03:25:09;;;;;;;94.88;15.98;;;;;;;7.81;92.58;100128.09;5038226;28;20219;-75
2022/01/03 03:27:43;;;;;;;81.40;14.38;;;;;;;7.64;92.37;100142.75;5038097;28;20041;-75
2022/01/03 03:30:14;;;;;;;73.10;15.35;;;;;;;7.60;93.12;100142.19;5038504;28;20048;-69
2022/01/03 03:32:40;;;;;;;89.43;13.60;;;;;;;7.56;92.66;100143.41;5038179;28;20037;-75
2022/01/03 03:35:06;;;;;;;89.22;14.95;;;;;;;7.62;92.95;100137.59;5036143;28;20194;-70
2022/01/03 03:37:32;;;;;;;72.22;15.20;;;;;;;7.57;92.96;100141.59;5039170;28;20270;-75
2022/01/03 03:39:57;;;;;;;73.20;15.13;;;;;;;7.59;92.63;100137.88;5036221;28;20026;-70
2022/01/03 03:42:23;;;;;;;86.78;14.30;;;;;;;7.67;92.66;100138.03;5037723;28;20041;-75
2022/01/03 03:44:48;;;;;;;60.40;14.98;;;;;;;7.66;92.24;100128.47;5035694;28;20290;-70
2022/01/03 03:47:14;;;;;;;37.65;14.50;;;;;;;7.41;92.09;100113.13;5033253;28;20045;-71
2022/01/03 03:49:40;;;;;;;41.28;14.85;;;;;;;7.33;91.29;100115.59;5034616;28;20095;-71
2022/01/03 03:52:05;;;;;;;46.08;15.02;;;;;;;7.05;93.01;100088.13;5034570;28;20041;-70
2022/01/03 03:54:32;;;;;;;42.42;15.68;;;;;;;7.39;91.71;100104.50;5032584;28;20058;-75
2022/01/03 03:56:58;;;;;;;43.45;15.70;;;;;;;7.34;91.40;100093.53;5036368;28;20098;-74
2022/01/03 03:59:25;;;;;;;32.50;14.95;;;;;;;7.60;89.69;100091.28;5034082;28;20057;-74
2022/01/03 04:01:52;;;;;;;36.58;14.23;;;;;;;7.71;89.65;100104.34;5032722;28;20034;-75
2022/01/03 04:04:19;;;;;;;32.38;14.75;;;;;;;7.65;89.43;100073.25;5036194;28;20021;-71
2022/01/03 04:06:45;;;;;;;37.25;16.23;;;;;;;7.84;88.11;100101.44;5036469;28;20033;-70
2022/01/03 04:09:10;;;;;;;35.75;13.90;;;;;;;7.88;87.35;100087.88;5036483;28;20022;-75
2022/01/03 04:11:36;;;;;;;36.83;14.93;;;;;;;7.81;86.70;100078.84;5036356;28;20041;-70
2022/01/03 04:14:01;;;;;;;57.50;15.38;;;;;;;7.78;87.78;100073.00;5034330;28;20323;-71
2022/01/03 04:16:27;;;;;;;43.75;14.20;;;;;;;7.57;87.79;100042.31;5035957;28;20223;-71
2022/01/03 04:18:52;;;;;;;54.20;15.20;;;;;;;7.60;88.21;100078.94;5036030;28;20025;-75
2022/01/03 04:21:18;;;;;;;38.88;15.35;;;;;;;7.63;88.90;100075.19;5034151;28;20037;-73
2022/01/03 04:23:43;;;;;;;48.05;15.43;;;;;;;7.69;89.38;100090.47;5035616;28;20034;-70
2022/01/03 04:26:09;;;;;;;48.65;14.85;;;;;;;7.69;89.37;100083.38;5034915;28;20373;-75
2022/01/03 04:28:35;;;;;;;51.45;15.57;;;;;;;7.61;89.30;100067.41;5037835;28;20067;-75
2022/01/03 04:31:00;;;;;;;71.07;14.80;;;;;;;7.49;89.63;100071.13;5037305;28;20029;-70
2022/01/03 04:33:26;;;;;;;55.85;14.93;;;;;;;7.32;91.10;100075.22;5035057;28;20076;-75
2022/01/03 04:35:51;;;;;;;53.58;16.33;;;;;;;7.25;92.70;100075.88;5035279;28;20225;-71
2022/01/03 04:38:18;;;;;;;61.30;17.45;;;;;;;7.14;93.09;100075.97;5035039;28;20092;-69
2022/01/03 04:40:44;;;;;;;60.10;14.95;;;;;;;6.98;93.84;100039.59;5031175;28;20260;-70
2022/01/03 04:43:10;;;;;;;47.15;15.05;;;;;;;7.11;94.61;100063.06;5032824;28;20063;-71
2022/01/03 04:45:35;;;;;;;50.13;16.10;;;;;;;7.15;94.79;100070.56;5035249;28;20064;-75
2022/01/03 04:48:01;;;;;;;64.72;15.75;;;;;;;7.32;94.80;100063.88;5032340;28;20018;-70
2022/01/03 04:50:26;;;;;;;59.80;16.70;;;;;;;7.55;92.91;100069.75;5036375;28;20033;-75
2022/01/03 04:52:52;;;;;;;49.00;14.35;;;;;;;7.54;92.46;100081.25;5037469;28;20029;-70
2022/01/03 04:55:17;;;;;;;56.55;15.27;;;;;;;7.27;94.46;100066.03;5034555;28;20025;-70
2022/01/03 04:57:42;;;;;;;75.20;15.90;;;;;;;7.33;96.05;100065.53;5032279;28;20030;-75
2022/01/03 05:00:09;;;;;;;46.72;13.70;;;;;;;7.62;94.44;100061.19;5036124;28;20014;-71
2022/01/03 05:02:37;;;;;;;40.47;14.80;;;;;;;7.66;94.31;100078.38;5037437;28;20034;-69
2022/01/03 05:05:03;;;;;;;58.25;14.15;;;;;;;7.53;93.95;100064.63;5035777;28;20229;-75
2022/01/03 05:07:28;;;;;;;42.35;15.25;;;;;;;7.43;93.81;100047.94;5036076;28;20021;-71
2022/01/03 05:09:54;;;;;;;77.60;17.52;;;;;;;7.62;94.00;100076.16;5039514;28;20220;-74
2022/01/03 05:12:19;;;;;;;63.53;16.17;;;;;;;7.51;93.56;100053.38;5039159;28;20036;-69
2022/01/03 05:14:45;;;;;;;76.07;18.20;;;;;;;7.74;92.31;100061.88;5038981;28;20033;-75
2022/01/03 05:17:10;;;;;;;49.92;16.60;;;;;;;7.70;92.30;100073.69;5039118;28;20042;-70
2022/01/03 05:19:36;;;;;;;48.60;17.20;;;;;;;7.81;91.02;100073.56;5039561;28;20029;-70
2022/01/03 05:22:02;;;;;;;39.78;16.08;;;;;;;7.90;90.83;100074.53;5039781;28;20097;-75
2022/01/03 05:24:28;;;;;;;57.47;16.98;;;;;;;7.87;90.22;100073.00;5037780;28;20047;-74
2022/01/03 05:26:53;;;;;;;53.78;16.05;;;;;;;7.90;91.71;100077.19;5037302;28;20308;-72
2022/01/03 05:29:19;;;;;;;49.65;16.20;;;;;;;7.86;91.55;100078.41;5038271;28;20422;-75
2022/01/03 05:31:44;;;;;;;71.95;16.77;;;;;;;7.82;90.77;100066.47;5040115;28;20096;-70
2022/01/03 05:34:10;;;;;;;74.70;15.85;;;;;;;7.84;90.96;100057.47;5038901;28;20079;-70
2022/01/03 05:36:35;;;;;;;62.90;18.00;;;;;;;7.99;90.21;100076.34;5038679;28;20064;-70
2022/01/03 05:39:01;;;;;;;53.38;17.05;;;;;;;7.93;90.51;100055.81;5039196;28;20025;-74
2022/01/03 05:41:26;;;;;;;56.42;18.25;;;;;;;8.02;91.37;100066.38;5038186;28;20034;-69
2022/01/03 05:43:52;;;;;;;62.97;16.50;;;;;;;7.93;91.13;100066.34;5038885;28;20025;-70
2022/01/03 05:46:18;;;;;;;67.00;15.30;;;;;;;8.00;90.42;100070.13;5040213;28;20053;-69
2022/01/03 05:48:44;;;;;;;68.28;16.58;;;;;;;7.99;90.66;100050.00;5038475;28;20040;-75
2022/01/03 05:51:09;;;;;;;42.15;15.98;;;;;;;7.81;90.83;100049.84;5032604;28;20024;-74
2022/01/03 05:53:35;;;;;;;56.97;16.90;;;;;;;8.05;90.32;100077.59;5039962;28;20219;-70
2022/01/03 05:56:00;;;;;;;37.75;16.50;;;;;;;8.13;89.48;100069.84;5038595;28;20048;-71
2022/01/03 05:58:27;;;;;;;51.72;17.02;;;;;;;8.16;88.81;100056.38;5038397;28;20103;-71
2022/01/03 06:00:53;;;;;;;53.17;19.38;;;;;;;8.10;89.28;100049.84;5038959;28;20063;-76
2022/01/03 06:03:21;;;;;;;58.13;18.45;;;;;;;8.09;88.61;100045.53;5038310;28;20056;-75
2022/01/03 06:06:16;;;;;;;66.15;18.80;;;;;;;7.90;89.76;100067.47;5034011;28;20026;-69
2022/01/03 06:08:39;;;;;;;52.85;18.42;;;;;;;7.62;90.52;100055.91;5037925;28;20029;-75
2022/01/03 06:11:04;;;;;;;49.65;17.05;;;;;;;7.52;90.12;100051.59;5037822;28;20067;-70
2022/01/03 06:13:30;;;;;;;54.63;16.02;;;;;;;7.41;91.02;100059.59;5035284;28;20029;-74
2022/01/03 06:15:56;;;;;;;44.08;17.00;;;;;;;7.47;91.36;100070.44;5038776;28;20091;-75
2022/01/03 06:18:22;;;;;;;62.85;17.20;;;;;;;7.49;90.66;100055.31;5038167;28;20273;-75
2022/01/03 06:20:49;;;;;;;48.90;18.60;;;;;;;7.59;90.32;100056.19;5033290;28;20033;-73
2022/01/03 06:23:16;;;;;;;38.67;16.98;;;;;;;7.66;89.78;100051.19;5032018;28;20136;-70
2022/01/03 06:25:42;;;;;;;55.30;17.55;;;;;;;7.75;89.89;100054.81;5039376;28;20096;-75
2022/01/03 06:28:09;;;;;;;58.13;18.30;;;;;;;7.87;89.31;100051.91;5035719;28;20040;-75
2022/01/03 06:30:35;;;;;;;79.15;18.85;;;;;;;7.60;90.30;100060.47;5037176;28;20063;-75
2022/01/03 06:33:02;;;;;;;57.80;18.38;;;;;;;7.62;90.64;100034.81;5039545;28;20032;-71
2022/01/03 06:35:28;;;;;;;55.15;22.67;;;;;;;7.82;90.39;100040.97;5039361;28;20049;-70
2022/01/03 06:37:53;;;;;;;62.08;20.80;;;;;;;7.90;89.53;100035.00;5039483;28;20096;-74
2022/01/03 06:40:19;;;;;;;51.35;20.67;;;;;;;7.88;89.47;100029.03;5036693;28;20025;-70
2022/01/03 06:42:44;;;;;;;83.25;25.00;;;;;;;8.11;90.49;100043.59;5036168;28;20089;-70
2022/01/03 06:45:10;;;;;;;69.80;23.10;;;;;;;8.18;89.99;100051.78;5034630;28;20025;-71
2022/01/03 06:47:35;;;;;;;78.65;22.45;;;;;;;8.00;89.77;100034.03;5036884;28;20041;-75
2022/01/03 06:50:01;;;;;;;57.53;20.35;;;;;;;8.01;90.67;100022.50;5038373;28;20061;-75
2022/01/03 06:52:27;;;;;;;45.33;18.65;;;;;;;8.22;90.00;100022.34;5036347;28;20065;-75
2022/01/03 06:54:52;;;;;;;73.22;18.00;;;;;;;8.22;90.32;100022.34;5033986;28;20214;-75
2022/01/03 06:57:17;;;;;;;60.38;19.10;;;;;;;8.20;90.55;100019.03;5037016;28;20041;-70
2022/01/03 06:59:43;;;;;;;42.53;19.10;;;;;;;8.31;90.29;100013.59;5032821;28;20030;-70
2022/01/03 07:02:09;;;;;;;40.30;16.98;;;;;;;8.48;90.14;100020.03;5033780;28;20043;-71
2022/01/03 07:04:35;;;;;;;52.88;20.27;;;;;;;8.58;90.30;100049.88;5037485;28;20039;-75
2022/01/03 07:07:00;;;;;;;47.53;17.40;;;;;;;8.60;90.32;100044.44;5037326;28;20033;-69
2022/01/03 07:09:26;;;;;;;36.15;15.00;;;;;;;8.42;89.73;100040.88;5037589;28;20026;-70
2022/01/03 07:11:51;;;;;;;37.42;16.05;;;;;;;8.41;90.00;100039.22;5034492;28;20034;-75
2022/01/03 07:19:44;;;;;;;40.42;17.88;;;;;;;8.08;89.82;100043.03;5036811;28;20232;-70
2022/01/03 07:22:10;;;;;;;44.70;18.75;;;;;;;7.82;91.32;100061.22;5036639;28;20365;-70
2022/01/03 07:24:38;;;;;;;46.63;19.70;;;;;;;7.72;92.42;100049.81;5036946;28;20045;-70
2022/01/03 07:27:05;;;;;;;54.20;23.23;;;;;;;7.83;92.80;100054.97;5035524;28;20041;-69
2022/01/03 07:29:32;;;;;;;74.22;26.55;;;;;;;7.89;92.81;100047.34;5036234;28;20102;-70
2022/01/03 07:31:57;;;;;;;118.93;34.17;;;;;;;7.69;93.31;100054.41;5036092;28;20048;-70
2022/01/03 07:34:24;;;;;;;99.40;31.27;;;;;;;7.35;95.46;100009.09;5035395;28;20049;-71
2022/01/03 07:36:50;;;;;;;71.32;26.92;;;;;;;7.84;95.27;100046.09;5036341;28;20044;-74
2022/01/03 07:39:15;;;;;;;86.70;28.25;;;;;;;8.14;94.23;100038.06;5036484;28;20056;-74
2022/01/03 07:41:41;;;;;;;54.83;22.23;;;;;;;7.69;95.16;100032.47;5031107;28;20084;-70
2022/01/03 07:44:06;;;;;;;68.95;25.85;;;;;;;7.72;95.44;100055.94;5036153;28;20323;-70
2022/01/03 07:46:32;;;;;;;66.90;26.23;;;;;;;7.85;95.56;100051.22;5032549;28;20033;-70
2022/01/03 07:48:58;;;;;;;61.42;22.77;;;;;;;7.96;96.04;100048.47;5036315;28;20060;-72
2022/01/03 07:51:23;;;;;;;62.42;24.10;;;;;;;7.88;96.75;100058.03;5035704;28;20041;-70
2022/01/03 07:53:48;;;;;;;70.07;21.55;;;;;;;7.98;95.27;100048.31;5035045;28;20268;-76
2022/01/03 07:56:14;;;;;;;64.82;23.13;;;;;;;7.72;95.50;100060.38;5033026;28;20057;-75
2022/01/03 07:58:40;;;;;;;43.65;19.20;;;;;;;7.97;95.30;100044.03;5034417;28;20021;-75
2022/01/03 08:01:06;;;;;;;54.88;29.60;;;;;;;8.49;91.47;100037.53;5038924;28;20025;-70
2022/01/03 08:03:31;;;;;;;62.03;24.60;;;;;;;8.63;90.51;100047.63;5040878;28;20094;-75
2022/01/03 08:05:57;;;;;;;64.05;23.17;;;;;;;8.55;89.57;100036.13;5041951;28;20129;-76
2022/01/03 08:08:23;;;;;;;60.78;25.08;;;;;;;8.70;89.08;100033.88;5042121;28;20071;-75
2022/01/03 08:10:49;;;;;;;54.25;21.20;;;;;;;8.78;87.87;100033.97;5042316;28;20042;-70
2022/01/03 08:13:15;;;;;;;44.58;18.80;;;;;;;8.72;88.39;100035.38;5040390;28;20034;-75
2022/01/03 08:15:41;;;;;;;45.88;17.67;;;;;;;8.67;88.99;100034.16;5042220;28;20037;-74
2022/01/03 08:18:07;;;;;;;35.70;17.85;;;;;;;8.62;89.67;100027.50;5041918;28;20250;-75
2022/01/03 08:20:32;;;;;;;34.10;15.65;;;;;;;8.75;89.05;100042.19;5041820;28;20135;-75
2022/01/03 08:22:58;;;;;;;43.83;20.33;;;;;;;8.89;88.01;100028.53;5041666;28;20037;-70
2022/01/03 08:25:23;;;;;;;42.78;19.48;;;;;;;8.70;88.80;100010.94;5041012;28;20033;-75
2022/01/03 08:27:49;;;;;;;35.85;17.45;;;;;;;8.82;89.16;100025.63;5042152;28;20037;-70
2022/01/03 08:30:15;;;;;;;52.85;23.25;;;;;;;8.64;89.77;99987.75;5041926;28;20030;-70
2022/01/03 08:32:40;;;;;;;86.65;33.72;;;;;;;8.50;90.34;100007.53;5041901;28;20041;-74
2022/01/03 08:35:06;;;;;;;71.80;29.35;;;;;;;8.75;89.44;100008.69;5041919;28;20104;-72
2022/01/03 08:37:32;;;;;;;60.00;25.67;;;;;;;8.69;88.85;100005.81;5041655;28;20228;-75
2022/01/03 08:40:03;;;;;;;65.40;25.30;;;;;;;8.72;88.18;100001.06;5041946;28;20033;-75
2022/01/03 08:42:29;;;;;;;101.82;42.85;;;;;;;8.81;87.01;99983.53;5044087;28;20035;-74
2022/01/03 08:44:54;;;;;;;45.42;20.25;;;;;;;8.82;86.59;99982.56;5045335;28;20053;-70
2022/01/03 08:47:19;;;;;;;46.30;20.45;;;;;;;8.95;86.79;99975.97;5045916;28;20039;-75
2022/01/03 08:49:45;;;;;;;49.28;22.77;;;;;;;8.73;85.26;99978.97;5045700;28;20048;-75
2022/01/03 08:52:10;;;;;;;230.98;75.55;;;;;;;8.73;86.77;99978.97;5044984;28;20109;-75
2022/01/03 08:54:36;;;;;;;47.70;22.40;;;;;;;8.72;86.67;99982.59;5045533;28;20099;-71
2022/01/03 08:57:01;;;;;;;47.60;21.63;;;;;;;8.99;86.92;99980.94;5044249;28;20041;-70
2022/01/03 08:59:27;;;;;;;50.13;23.60;;;;;;;9.07;87.23;99973.13;5045139;28;20029;-69
2022/01/03 09:01:52;;;;;;;53.30;23.63;;;;;;;8.98;87.91;99977.47;5045780;28;20049;-71
2022/01/03 09:04:18;;;;;;;52.13;22.63;;;;;;;8.95;89.02;99981.25;5045424;28;20037;-73
2022/01/03 09:06:43;;;;;;;49.38;23.40;;;;;;;8.92;88.93;99983.34;5045250;28;20096;-75
2022/01/03 09:09:09;;;;;;;51.95;24.48;;;;;;;8.93;88.38;99969.16;5045287;28;20093;-75
2022/01/03 09:11:35;;;;;;;50.97;23.58;;;;;;;9.02;87.48;99978.03;5045389;28;20256;-69
2022/01/03 09:14:01;;;;;;;126.05;59.75;;;;;;;8.88;86.63;99947.66;5044623;28;20064;-74
2022/01/03 09:16:26;;;;;;;67.93;42.15;;;;;;;8.94;86.19;99947.06;5045382;28;20037;-75
2022/01/03 09:18:52;;;;;;;45.67;22.17;;;;;;;9.09;86.04;99958.78;5044947;28;20220;-70
2022/01/03 09:21:17;;;;;;;34.20;17.77;;;;;;;9.05;85.91;99952.16;5043493;28;20304;-75
2022/01/03 09:23:47;;;;;;;41.25;18.95;;;;;;;8.88;88.90;99956.41;5045565;28;20266;-75
2022/01/03 09:28:57;;;;;;;53.38;25.85;;;;;;;8.99;86.02;99949.25;5044560;28;20098;-76
2022/01/03 09:31:31;;;;;;;61.05;27.33;;;;;;;8.87;87.01;99943.34;5044833;28;20311;-74
2022/01/03 09:33:59;;;;;;;47.15;23.52;;;;;;;8.75;87.05;99944.50;5044844;28;20025;-77
2022/01/03 09:36:26;;;;;;;50.60;24.85;;;;;;;8.81;87.56;99936.00;5043353;28;20076;-70
2022/01/03 09:38:52;;;;;;;54.83;25.58;;;;;;;8.92;86.42;99919.97;5043593;28;20092;-75
2022/01/03 09:41:20;;;;;;;65.32;29.25;;;;;;;9.09;85.50;99921.81;5044648;28;20100;-75
2022/01/03 09:43:54;;;;;;;57.53;27.98;;;;;;;9.09;88.23;99907.78;5044067;28;20228;-70
2022/01/03 09:46:41;;;;;;;61.10;27.25;;;;;;;9.31;88.93;99890.66;5044762;28;20033;-76
2022/01/03 09:49:08;;;;;;;49.35;24.77;;;;;;;9.27;87.81;99884.84;5045056;28;20053;-70
2022/01/03 09:51:34;;;;;;;39.88;22.05;;;;;;;9.34;86.82;99866.56;5044078;28;20516;-76
2022/01/03 09:54:03;;;;;;;36.70;19.60;;;;;;;9.47;87.01;99881.09;5043948;28;20021;-70
2022/01/03 09:56:33;;;;;;;45.20;20.58;;;;;;;9.44;89.79;99880.56;5043242;28;20261;-73
2022/01/03 09:59:00;;;;;;;43.92;21.73;;;;;;;9.58;87.76;99857.09;5043954;28;20053;-75
2022/01/03 10:01:27;;;;;;;37.55;20.27;;;;;;;10.00;85.45;99872.25;5044453;28;20114;-75
2022/01/03 10:03:53;;;;;;;32.72;18.08;;;;;;;10.10;85.83;99864.22;5044472;28;20276;-71
2022/01/03 10:06:20;;;;;;;33.00;16.65;;;;;;;10.31;84.07;99845.34;5044103;28;20037;-72
2022/01/03 10:08:47;;;;;;;29.67;16.20;;;;;;;10.26;83.85;99850.28;5043954;28;20227;-76
2022/01/03 10:11:14;;;;;;;29.52;16.70;;;;;;;9.88;84.34;99833.81;5044295;28;20038;-75
2022/01/03 10:13:40;;;;;;;29.80;17.27;;;;;;;9.70;84.09;99831.22;5043458;28;20025;-75
2022/01/03 10:16:06;;;;;;;32.13;17.23;;;;;;;9.63;86.58;99824.06;5044201;28;20033;-75
2022/01/03 10:18:33;;;;;;;33.15;18.05;;;;;;;9.55;86.84;99804.50;5043879;28;20312;-70
2022/01/03 10:21:00;;;;;;;36.63;19.75;;;;;;;9.70;88.03;99812.72;5050390;28;20084;-75
2022/01/03 10:23:26;;;;;;;37.50;20.15;;;;;;;9.87;84.74;99818.94;5042635;28;20021;-71
2022/01/03 10:25:52;;;;;;;37.38;20.33;;;;;;;9.80;85.48;99813.44;5043680;28;20034;-75
2022/01/03 10:28:26;;;;;;;38.60;20.65;;;;;;;9.56;88.07;99802.69;5043594;28;20270;-70
2022/01/03 10:30:52;;;;;;;;;;;;;;;9.36;87.84;99799.38;5044643;28;20049;-70
2022/01/03 10:33:23;;;;;;;45.63;21.92;;;;;;;9.52;89.13;99796.06;5043278;28;19948;-70
2022/01/03 10:35:53;;;;;;;43.63;23.23;;;;;;;9.33;89.04;99790.94;5044183;28;20037;-75
2022/01/03 10:38:40;;;;;;;43.30;22.98;;;;;;;9.41;89.50;99799.78;5043111;28;20032;-69
2022/01/03 10:41:11;;;;;;;45.53;23.17;;;;;;;9.56;89.46;99785.03;5042085;28;20029;-70
2022/01/03 10:43:37;;;;;;;43.42;23.23;;;;;;;9.60;88.09;99778.44;5041800;28;20112;-77
2022/01/03 10:46:28;;;;;;;47.20;24.40;;;;;;;9.73;89.02;99770.09;5042095;28;20037;-69
2022/01/03 10:49:21;;;;;;;47.30;24.80;;;;;;;9.81;87.30;99772.78;5041768;28;20033;-73
2022/01/03 10:51:47;;;;;;;48.88;24.30;;;;;;;9.79;86.91;99766.84;5041538;28;20041;-75
2022/01/03 10:54:19;;;;;;;46.63;23.15;;;;;;;9.91;86.25;99764.75;5041996;28;20104;-76
2022/01/03 10:56:50;;;;;;;44.50;23.42;;;;;;;10.05;84.23;99742.16;5040555;28;20338;-76
2022/01/03 10:59:15;;;;;;;47.90;24.33;;;;;;;10.01;85.70;99746.13;5041593;28;20087;-71
2022/01/03 11:01:46;;;;;;;45.20;23.48;;;;;;;9.98;86.54;99739.31;5041792;28;20046;-75
2022/01/03 11:04:24;;;;;;;43.15;22.70;;;;;;;10.16;85.41;99741.88;5040657;28;20033;-78
2022/01/03 11:13:10;;;;;;;54.15;26.83;;;;;;;10.47;85.85;99707.81;5041089;28;20041;-77
2022/01/03 11:15:40;;;;;;;54.20;27.42;;;;;;;10.67;83.74;99703.88;5041556;28;20359;-70
2022/01/03 11:18:21;;;;;;;52.85;26.52;;;;;;;10.97;82.96;99697.09;5040978;28;20037;-77
2022/01/03 11:21:06;;;;;;;52.63;25.73;;;;;;;11.09;82.12;99693.13;5041497;28;20222;-76
2022/01/03 11:23:32;;;;;;;52.92;28.15;;;;;;;11.17;81.90;99677.22;5041204;28;20072;-73
2022/01/03 11:25:58;;;;;;;58.22;28.88;;;;;;;11.36;82.47;99673.38;5036362;28;20049;-78
2022/01/03 11:28:26;;;;;;;58.65;28.50;;;;;;;11.20;80.69;99666.28;5035980;28;20041;-76
2022/01/03 11:30:53;;;;;;;54.47;28.52;;;;;;;11.06;79.97;99656.34;5036361;28;20029;-78
2022/01/03 11:33:20;;;;;;;56.00;28.98;;;;;;;11.12;81.22;99665.47;5034768;28;20033;-74
2022/01/03 11:35:50;;;;;;;56.50;27.27;;;;;;;11.20;81.47;99649.53;5036994;28;20037;-74